createdAt,value
2019-02-09T00:00:46.608Z,962.26
2019-02-09T00:01:46.562Z,962.30
2019-02-09T00:02:46.522Z,962.36
2019-02-09T00:03:46.476Z,962.46
2019-02-09T00:04:46.437Z,962.51
2019-02-09T00:05:46.391Z,962.33
2019-02-09T00:06:46.343Z,962.43
2019-02-09T00:07:46.299Z,962.55
2019-02-09T00:08:46.256Z,962.45
2019-02-09T00:09:46.213Z,962.45
2019-02-09T00:10:46.167Z,962.44
2019-02-09T00:11:46.127Z,962.34
2019-02-09T00:12:46.080Z,962.30
2019-02-09T00:13:46.073Z,962.37
2019-02-09T00:14:45.992Z,962.38
2019-02-09T00:15:45.954Z,962.28
2019-02-09T00:16:45.907Z,962.41
2019-02-09T00:17:45.871Z,962.40
2019-02-09T00:18:45.816Z,962.30
2019-02-09T00:19:45.784Z,962.32
2019-02-09T00:20:45.729Z,962.37
2019-02-09T00:21:45.688Z,962.35
2019-02-09T00:22:45.640Z,962.32
2019-02-09T00:23:45.598Z,962.34
2019-02-09T00:24:45.562Z,962.36
2019-02-09T00:25:45.508Z,962.28
2019-02-09T00:26:45.463Z,962.18
2019-02-09T00:27:45.484Z,962.35
2019-02-09T00:28:45.377Z,962.14
2019-02-09T00:29:46.587Z,962.26
2019-02-09T00:30:45.290Z,962.14
2019-02-09T00:31:45.248Z,962.14
2019-02-09T00:32:45.211Z,962.15
2019-02-09T00:33:45.165Z,962.16
2019-02-09T00:34:45.112Z,962.16
2019-02-09T00:35:45.087Z,962.01
2019-02-09T00:36:45.025Z,962.09
2019-02-09T00:37:44.986Z,962.07
2019-02-09T00:38:44.936Z,962.07
2019-02-09T00:39:44.896Z,962.07
2019-02-09T00:40:44.849Z,962.09
2019-02-09T00:41:44.819Z,962.06
2019-02-09T00:42:44.763Z,962.27
2019-02-09T00:43:44.715Z,962.00
2019-02-09T00:44:44.676Z,962.09
2019-02-09T00:45:44.631Z,962.01
2019-02-09T00:46:44.588Z,961.95
2019-02-09T00:47:44.555Z,961.97
2019-02-09T00:48:44.499Z,961.88
2019-02-09T00:49:44.462Z,961.89
2019-02-09T00:50:44.412Z,961.91
2019-02-09T00:51:44.373Z,961.83
2019-02-09T00:52:44.319Z,961.90
2019-02-09T00:53:44.290Z,961.93
2019-02-09T00:54:44.232Z,961.90
2019-02-09T00:55:44.202Z,961.90
2019-02-09T00:56:44.145Z,961.85
2019-02-09T00:57:44.101Z,961.72
2019-02-09T00:58:44.066Z,961.72
2019-02-09T00:59:44.015Z,961.64
2019-02-09T01:00:43.980Z,961.67
2019-02-09T01:01:43.944Z,961.77
2019-02-09T01:02:43.881Z,961.75
2019-02-09T01:03:43.834Z,961.62
2019-02-09T01:04:43.793Z,961.58
2019-02-09T01:05:43.750Z,961.55
2019-02-09T01:06:43.711Z,961.44
2019-02-09T01:07:43.667Z,961.47
2019-02-09T01:08:43.618Z,961.45
2019-02-09T01:09:43.575Z,961.48
2019-02-09T01:10:43.531Z,961.41
2019-02-09T01:11:43.495Z,961.41
2019-02-09T01:12:43.436Z,961.32
2019-02-09T01:13:43.406Z,961.32
2019-02-09T01:14:43.364Z,961.28
2019-02-09T01:15:43.311Z,961.18
2019-02-09T01:16:43.271Z,961.06
2019-02-09T01:17:43.230Z,961.07
2019-02-09T01:18:43.178Z,961.15
2019-02-09T01:19:43.136Z,961.10
2019-02-09T01:20:43.090Z,961.34
2019-02-09T01:21:43.052Z,961.32
2019-02-09T01:22:42.998Z,961.35
2019-02-09T01:23:42.952Z,961.22
2019-02-09T01:24:42.915Z,961.27
2019-02-09T01:25:42.876Z,961.23
2019-02-09T01:26:42.833Z,961.33
2019-02-09T01:27:42.782Z,961.28
2019-02-09T01:28:42.740Z,961.25
2019-02-09T01:29:42.697Z,961.23
2019-02-09T01:30:42.645Z,961.19
2019-02-09T01:31:42.607Z,961.33
2019-02-09T01:32:42.558Z,961.29
2019-02-09T01:33:42.518Z,961.32
2019-02-09T01:34:42.470Z,961.32
2019-02-09T01:35:42.436Z,961.31
2019-02-09T01:36:42.382Z,961.18
2019-02-09T01:37:42.349Z,961.22
2019-02-09T01:38:42.293Z,961.33
2019-02-09T01:39:42.249Z,961.41
2019-02-09T01:40:42.202Z,961.40
2019-02-09T01:41:42.161Z,961.42
2019-02-09T01:42:42.119Z,961.56
2019-02-09T01:43:42.076Z,961.59
2019-02-09T01:44:42.029Z,961.58
2019-02-09T01:45:41.988Z,961.54
2019-02-09T01:46:41.940Z,961.60
2019-02-09T01:47:41.897Z,961.50
2019-02-09T01:48:41.856Z,961.52
2019-02-09T01:49:41.810Z,961.55
2019-02-09T01:50:41.766Z,961.44
2019-02-09T01:51:41.742Z,961.49
2019-02-09T01:52:41.680Z,961.57
2019-02-09T01:53:41.632Z,961.65
2019-02-09T01:54:41.591Z,961.61
2019-02-09T01:55:41.569Z,961.55
2019-02-09T01:56:41.501Z,961.54
2019-02-09T01:57:41.458Z,961.54
2019-02-09T01:58:41.413Z,961.53
2019-02-09T01:59:41.368Z,961.50
2019-02-09T02:00:41.324Z,961.41
2019-02-09T02:01:41.281Z,961.28
2019-02-09T02:02:41.236Z,961.32
2019-02-09T02:03:41.194Z,961.28
2019-02-09T02:04:41.151Z,961.21
2019-02-09T02:05:41.119Z,961.26
2019-02-09T02:06:41.061Z,961.31
2019-02-09T02:07:41.018Z,961.20
2019-02-09T02:08:40.980Z,961.18
2019-02-09T02:09:40.928Z,961.17
2019-02-09T02:10:40.891Z,961.17
2019-02-09T02:11:40.838Z,961.22
2019-02-09T02:12:40.796Z,961.21
2019-02-09T02:13:40.752Z,961.26
2019-02-09T02:14:40.706Z,961.27
2019-02-09T02:15:40.666Z,961.19
2019-02-09T02:16:40.619Z,961.19
2019-02-09T02:17:40.575Z,961.19
2019-02-09T02:18:40.531Z,961.16
2019-02-09T02:19:40.507Z,961.19
2019-02-09T02:20:40.447Z,961.10
2019-02-09T02:21:40.397Z,961.20
2019-02-09T02:22:40.361Z,961.16
2019-02-09T02:23:40.383Z,961.13
2019-02-09T02:24:40.271Z,961.16
2019-02-09T02:25:40.225Z,961.14
2019-02-09T02:26:40.178Z,961.17
2019-02-09T02:27:40.134Z,961.05
2019-02-09T02:28:40.091Z,961.11
2019-02-09T02:29:40.048Z,961.08
2019-02-09T02:30:40.014Z,961.10
2019-02-09T02:31:39.958Z,961.05
2019-02-09T02:32:39.917Z,961.08
2019-02-09T02:33:39.883Z,961.14
2019-02-09T02:34:39.819Z,961.11
2019-02-09T02:35:39.781Z,961.19
2019-02-09T02:36:39.744Z,961.20
2019-02-09T02:37:39.693Z,961.20
2019-02-09T02:38:39.651Z,961.22
2019-02-09T02:39:39.604Z,961.30
2019-02-09T02:40:39.561Z,961.31
2019-02-09T02:41:39.544Z,961.29
2019-02-09T02:42:39.474Z,961.39
2019-02-09T02:43:39.431Z,961.38
2019-02-09T02:44:39.388Z,961.38
2019-02-09T02:45:39.343Z,961.37
2019-02-09T02:46:39.297Z,961.41
2019-02-09T02:47:39.253Z,961.49
2019-02-09T02:48:39.207Z,961.45
2019-02-09T02:49:39.167Z,961.55
2019-02-09T02:50:39.119Z,961.55
2019-02-09T02:51:39.078Z,961.64
2019-02-09T02:52:39.032Z,961.86
2019-02-09T02:53:38.993Z,962.08
2019-02-09T02:54:38.956Z,962.42
2019-02-09T02:55:38.903Z,962.70
2019-02-09T02:56:38.850Z,962.65
2019-02-09T02:57:38.811Z,962.69
2019-02-09T02:58:38.767Z,962.68
2019-02-09T02:59:38.723Z,962.55
2019-02-09T03:00:38.684Z,962.60
2019-02-09T03:01:38.651Z,962.68
2019-02-09T03:02:38.591Z,962.52
2019-02-09T03:03:38.546Z,962.55
2019-02-09T03:04:38.502Z,962.40
2019-02-09T03:05:38.459Z,962.41
2019-02-09T03:06:38.415Z,962.34
2019-02-09T03:07:38.374Z,962.34
2019-02-09T03:08:38.328Z,962.24
2019-02-09T03:09:38.283Z,962.00
2019-02-09T03:10:38.239Z,961.81
2019-02-09T03:11:38.196Z,961.71
2019-02-09T03:12:38.154Z,961.77
2019-02-09T03:13:38.109Z,961.80
2019-02-09T03:14:38.058Z,961.79
2019-02-09T03:15:38.021Z,961.81
2019-02-09T03:16:37.969Z,961.76
2019-02-09T03:17:37.932Z,961.74
2019-02-09T03:18:37.884Z,961.76
2019-02-09T03:19:37.852Z,961.75
2019-02-09T03:20:37.800Z,961.75
2019-02-09T03:21:37.755Z,961.72
2019-02-09T03:22:37.708Z,961.68
2019-02-09T03:23:37.661Z,961.68
2019-02-09T03:24:37.631Z,961.66
2019-02-09T03:25:37.577Z,961.66
2019-02-09T03:26:37.534Z,961.66
2019-02-09T03:27:37.488Z,961.71
2019-02-09T03:28:37.441Z,961.69
2019-02-09T03:29:37.401Z,961.72
2019-02-09T03:30:47.203Z,961.72
2019-02-09T03:31:37.314Z,961.72
2019-02-09T03:32:37.265Z,961.79
2019-02-09T03:33:37.225Z,961.80
2019-02-09T03:34:37.183Z,961.77
2019-02-09T03:35:37.137Z,961.83
2019-02-09T03:36:37.093Z,961.82
2019-02-09T03:37:37.047Z,961.80
2019-02-09T03:38:37.000Z,961.85
2019-02-09T03:39:36.958Z,961.87
2019-02-09T03:40:36.916Z,961.87
2019-02-09T03:41:36.873Z,961.88
2019-02-09T03:42:36.827Z,961.99
2019-02-09T03:43:36.784Z,961.96
2019-02-09T03:44:36.738Z,962.04
2019-02-09T03:45:36.697Z,962.08
2019-02-09T03:46:36.649Z,962.07
2019-02-09T03:47:36.605Z,962.14
2019-02-09T03:48:36.559Z,962.09
2019-02-09T03:49:36.525Z,962.14
2019-02-09T03:50:36.477Z,962.17
2019-02-09T03:51:36.437Z,962.19
2019-02-09T03:52:36.384Z,962.19
2019-02-09T03:53:36.342Z,962.28
2019-02-09T03:54:36.297Z,962.21
2019-02-09T03:55:36.256Z,962.24
2019-02-09T03:56:36.207Z,962.23
2019-02-09T03:57:36.165Z,962.29
2019-02-09T03:58:36.120Z,962.26
2019-02-09T03:59:36.079Z,962.24
2019-02-09T04:00:36.030Z,962.09
2019-02-09T04:01:35.989Z,962.09
2019-02-09T04:02:35.943Z,962.08
2019-02-09T04:03:35.903Z,962.13
2019-02-09T04:04:35.907Z,962.13
2019-02-09T04:05:35.819Z,962.12
2019-02-09T04:06:35.766Z,962.12
2019-02-09T04:07:35.727Z,962.12
2019-02-09T04:08:35.678Z,962.17
2019-02-09T04:09:35.692Z,962.21
2019-02-09T04:10:35.591Z,962.18
2019-02-09T04:11:35.546Z,962.28
2019-02-09T04:12:35.502Z,962.23
2019-02-09T04:13:35.463Z,962.25
2019-02-09T04:14:35.413Z,962.28
2019-02-09T04:15:35.371Z,962.27
2019-02-09T04:16:35.326Z,962.30
2019-02-09T04:17:35.283Z,962.31
2019-02-09T04:18:35.248Z,962.35
2019-02-09T04:19:35.197Z,962.28
2019-02-09T04:20:35.150Z,962.27
2019-02-09T04:21:35.107Z,962.20
2019-02-09T04:22:35.071Z,962.26
2019-02-09T04:23:35.021Z,962.28
2019-02-09T04:24:34.976Z,962.28
2019-02-09T04:25:34.930Z,962.33
2019-02-09T04:26:34.885Z,962.37
2019-02-09T04:27:34.844Z,962.42
2019-02-09T04:28:34.798Z,962.49
2019-02-09T04:29:34.758Z,962.45
2019-02-09T04:30:34.710Z,962.46
2019-02-09T04:31:34.669Z,962.49
2019-02-09T04:32:34.632Z,962.44
2019-02-09T04:33:34.588Z,962.46
2019-02-09T04:34:34.534Z,962.44
2019-02-09T04:35:34.512Z,962.48
2019-02-09T04:36:34.445Z,962.54
2019-02-09T04:37:34.404Z,962.58
2019-02-09T04:38:34.356Z,962.59
2019-02-09T04:39:34.319Z,962.61
2019-02-09T04:40:34.290Z,962.66
2019-02-09T04:41:34.270Z,962.68
2019-02-09T04:42:34.192Z,962.68
2019-02-09T04:43:34.149Z,962.67
2019-02-09T04:44:34.095Z,962.65
2019-02-09T04:45:34.051Z,962.72
2019-02-09T04:46:34.004Z,962.69
2019-02-09T04:47:33.972Z,962.67
2019-02-09T04:48:33.918Z,962.70
2019-02-09T04:49:33.878Z,962.75
2019-02-09T04:50:33.832Z,962.85
2019-02-09T04:51:33.790Z,962.80
2019-02-09T04:52:33.742Z,962.88
2019-02-09T04:53:33.698Z,962.92
2019-02-09T04:54:33.654Z,962.95
2019-02-09T04:55:33.607Z,962.97
2019-02-09T04:56:33.577Z,963.02
2019-02-09T04:57:33.522Z,963.02
2019-02-09T04:58:33.475Z,963.11
2019-02-09T04:59:33.431Z,963.07
2019-02-09T05:00:33.387Z,963.12
2019-02-09T05:01:33.345Z,963.09
2019-02-09T05:02:33.297Z,963.17
2019-02-09T05:03:33.261Z,963.10
2019-02-09T05:04:33.228Z,963.15
2019-02-09T05:05:33.169Z,963.21
2019-02-09T05:06:33.123Z,963.18
2019-02-09T05:07:33.081Z,963.20
2019-02-09T05:08:33.034Z,963.27
2019-02-09T05:09:32.990Z,963.27
2019-02-09T05:10:32.945Z,963.32
2019-02-09T05:11:32.904Z,963.30
2019-02-09T05:12:32.858Z,963.31
2019-02-09T05:13:32.813Z,963.35
2019-02-09T05:14:32.769Z,963.42
2019-02-09T05:15:32.726Z,963.45
2019-02-09T05:16:32.686Z,963.37
2019-02-09T05:17:32.640Z,963.38
2019-02-09T05:18:32.591Z,963.33
2019-02-09T07:59:40.130Z,965.46
2019-02-09T08:00:40.055Z,965.36
2019-02-09T08:01:40.000Z,965.53
2019-02-09T08:02:39.944Z,965.49
2019-02-09T08:03:39.898Z,965.46
2019-02-09T08:04:39.848Z,965.47
2019-02-09T08:05:39.798Z,965.46
2019-02-09T08:06:41.288Z,965.51
2019-02-09T08:07:39.710Z,965.57
2019-02-09T08:08:39.650Z,965.56
2019-02-09T08:09:39.627Z,965.54
2019-02-09T08:10:39.550Z,965.67
2019-02-09T08:11:39.503Z,965.66
2019-02-09T08:12:39.454Z,965.64
2019-02-09T08:13:39.408Z,965.64
2019-02-09T08:14:39.365Z,965.64
2019-02-09T08:15:39.313Z,965.75
2019-02-09T08:16:39.273Z,965.73
2019-02-09T08:17:39.219Z,965.83
2019-02-09T08:18:39.464Z,965.82
2019-02-09T08:19:39.230Z,965.87
2019-02-09T08:20:39.082Z,965.92
2019-02-09T08:21:39.044Z,965.82
2019-02-09T08:22:38.990Z,965.82
2019-02-09T08:23:38.982Z,965.78
2019-02-09T08:24:38.928Z,965.84
2019-02-09T08:25:38.868Z,965.86
2019-02-09T08:26:38.808Z,965.76
2019-02-09T08:27:38.766Z,965.83
2019-02-09T08:28:38.715Z,965.86
2019-02-09T08:29:38.691Z,965.91
2019-02-09T08:30:38.647Z,965.91
2019-02-09T08:31:38.577Z,966.00
2019-02-09T08:32:38.526Z,965.95
2019-02-09T08:33:38.492Z,965.98
2019-02-09T08:34:38.450Z,965.97
2019-02-09T08:35:40.224Z,965.98
2019-02-09T08:36:38.353Z,966.02
2019-02-09T08:37:38.340Z,966.09
2019-02-09T08:38:38.262Z,966.11
2019-02-09T08:39:38.218Z,966.14
2019-02-09T08:40:38.174Z,966.11
2019-02-09T08:41:38.164Z,966.19
2019-02-09T08:42:39.882Z,966.11
2019-02-09T08:43:38.039Z,966.13
2019-02-09T08:44:37.995Z,966.18
2019-02-09T08:45:37.960Z,966.16
2019-02-09T08:46:37.904Z,966.19
2019-02-09T08:47:37.858Z,966.20
2019-02-09T08:48:37.834Z,966.16
2019-02-09T08:49:37.774Z,966.14
2019-02-09T08:50:37.724Z,966.18
2019-02-09T08:51:37.693Z,966.18
2019-02-09T08:52:37.644Z,966.10
2019-02-09T08:53:37.594Z,966.17
2019-02-09T08:54:37.547Z,966.14
2019-02-09T08:55:37.507Z,966.13
2019-02-09T08:56:37.459Z,966.04
2019-02-09T08:57:37.422Z,966.12
2019-02-09T08:58:37.391Z,966.18
2019-02-09T08:59:37.328Z,966.13
2019-02-09T09:00:37.282Z,966.14
2019-02-09T09:01:37.240Z,966.13
2019-02-09T09:02:37.193Z,966.17
2019-02-09T09:03:37.202Z,966.10
2019-02-09T09:04:37.157Z,966.09
2019-02-09T09:05:37.066Z,966.20
2019-02-09T09:06:37.056Z,966.24
2019-02-09T09:07:36.972Z,966.28
2019-02-09T09:08:36.929Z,966.16
2019-02-09T09:09:36.884Z,966.28
2019-02-09T09:10:36.852Z,966.29
2019-02-09T09:11:36.796Z,966.32
2019-02-09T09:12:36.752Z,966.33
2019-02-09T09:13:36.707Z,966.41
2019-02-09T09:14:36.664Z,966.37
2019-02-09T09:15:36.619Z,966.37
2019-02-09T09:16:36.575Z,966.39
2019-02-09T09:17:36.530Z,966.48
2019-02-09T09:18:36.489Z,966.51
2019-02-09T09:19:36.443Z,966.48
2019-02-09T09:20:36.396Z,966.43
2019-02-09T09:21:36.355Z,966.57
2019-02-09T09:22:36.321Z,966.41
2019-02-09T09:23:36.267Z,966.51
2019-02-09T09:24:36.224Z,966.41
2019-02-09T09:25:36.179Z,966.45
2019-02-09T09:26:36.134Z,966.43
2019-02-09T09:27:36.090Z,966.47
2019-02-09T09:28:36.046Z,966.48
2019-02-09T09:29:36.002Z,966.50
2019-02-09T09:30:35.954Z,966.44
2019-02-09T09:31:35.915Z,966.46
2019-02-09T09:32:35.867Z,966.47
2019-02-09T09:33:35.827Z,966.48
2019-02-09T09:34:35.781Z,966.58
2019-02-09T09:35:35.737Z,966.52
2019-02-09T09:36:35.742Z,966.45
2019-02-09T09:37:35.661Z,966.42
2019-02-09T09:38:35.605Z,966.47
2019-02-09T09:39:35.560Z,966.42
2019-02-09T09:40:35.518Z,966.47
2019-02-09T09:41:35.474Z,966.42
2019-02-09T09:42:35.432Z,966.48
2019-02-09T09:43:35.387Z,966.48
2019-02-09T09:44:35.343Z,966.52
2019-02-09T09:45:35.346Z,966.51
2019-02-09T09:46:35.254Z,966.49
2019-02-09T09:47:35.218Z,966.50
2019-02-09T09:48:35.171Z,966.50
2019-02-09T09:49:35.121Z,966.41
2019-02-09T09:50:35.075Z,966.49
2019-02-09T09:51:35.033Z,966.55
2019-02-09T09:52:34.990Z,966.55
2019-02-09T09:53:34.944Z,966.51
2019-02-09T09:54:34.901Z,966.44
2019-02-09T09:55:34.865Z,966.54
2019-02-09T09:56:34.824Z,966.56
2019-02-09T09:57:34.769Z,966.65
2019-02-09T09:58:34.730Z,966.59
2019-02-09T09:59:34.681Z,966.52
2019-02-09T10:00:34.638Z,966.53
2019-02-09T10:01:34.602Z,966.46
2019-02-09T10:02:36.529Z,966.60
2019-02-09T10:03:34.505Z,966.58
2019-02-09T10:04:34.475Z,966.66
2019-02-09T10:05:34.420Z,966.67
2019-02-09T10:06:34.368Z,966.69
2019-02-09T10:07:34.329Z,966.68
2019-02-09T10:08:34.284Z,966.79
2019-02-09T10:09:34.242Z,966.79
2019-02-09T10:10:34.199Z,966.78
2019-02-09T10:11:34.163Z,966.73
2019-02-09T10:12:34.112Z,966.77
2019-02-09T10:13:34.066Z,966.67
2019-02-09T10:14:34.020Z,966.65
2019-02-09T10:15:33.976Z,966.72
2019-02-09T10:16:33.933Z,966.74
2019-02-09T10:17:33.896Z,966.75
2019-02-09T10:18:33.846Z,966.77
2019-02-09T10:19:33.891Z,966.76
2019-02-09T10:20:33.757Z,966.75
2019-02-09T10:21:33.713Z,966.75
2019-02-09T10:22:33.667Z,966.78
2019-02-09T10:23:33.624Z,966.80
2019-02-09T10:24:33.580Z,966.75
2019-02-09T10:25:33.538Z,966.80
2019-02-09T10:26:33.497Z,966.80
2019-02-09T10:27:33.445Z,966.84
2019-02-09T10:28:33.406Z,966.81
2019-02-09T10:29:33.362Z,966.91
2019-02-09T10:30:33.315Z,966.93
2019-02-09T10:31:33.269Z,967.00
2019-02-09T10:32:33.228Z,966.91
2019-02-09T10:33:33.192Z,967.10
2019-02-09T10:34:33.136Z,966.90
2019-02-09T10:35:33.095Z,967.05
2019-02-09T10:36:33.052Z,967.01
2019-02-09T10:37:33.009Z,966.99
2019-02-09T10:38:32.963Z,966.97
2019-02-09T10:39:32.925Z,967.05
2019-02-09T10:40:32.876Z,967.07
2019-02-09T10:41:32.846Z,967.14
2019-02-09T10:42:32.786Z,967.05
2019-02-09T10:43:32.744Z,967.02
2019-02-09T10:44:32.701Z,967.13
2019-02-09T10:45:32.746Z,967.15
2019-02-09T10:46:32.611Z,967.06
2019-02-09T10:47:32.568Z,967.19
2019-02-09T10:48:32.526Z,967.10
2019-02-09T10:49:32.491Z,967.18
2019-02-09T10:50:32.456Z,967.22
2019-02-09T10:51:32.389Z,967.20
2019-02-09T10:52:32.366Z,967.10
2019-02-09T10:53:32.301Z,967.17
2019-02-09T10:54:32.308Z,967.15
2019-02-09T10:55:32.217Z,967.23
2019-02-09T10:56:32.172Z,967.21
2019-02-09T10:57:32.175Z,967.23
2019-02-09T10:58:32.081Z,967.22
2019-02-09T10:59:32.040Z,967.20
2019-02-09T11:00:32.003Z,967.24
2019-02-09T11:01:31.958Z,967.28
2019-02-09T11:02:31.911Z,967.21
2019-02-09T11:03:31.864Z,967.25
2019-02-09T11:04:31.824Z,967.34
2019-02-09T11:05:31.865Z,967.32
2019-02-09T11:06:31.775Z,967.33
2019-02-09T11:07:31.688Z,967.23
2019-02-09T11:08:31.643Z,967.28
2019-02-09T11:09:31.602Z,967.15
2019-02-09T11:10:31.582Z,967.21
2019-02-09T11:11:31.512Z,967.14
2019-02-09T11:12:31.468Z,967.21
2019-02-09T11:13:31.424Z,967.11
2019-02-09T11:14:31.417Z,967.11
2019-02-09T11:15:31.335Z,967.08
2019-02-09T11:16:31.292Z,967.11
2019-02-09T11:17:31.250Z,967.15
2019-02-09T11:18:31.204Z,966.99
2019-02-09T11:19:31.180Z,967.06
2019-02-09T11:20:31.121Z,967.15
2019-02-09T11:21:31.071Z,967.13
2019-02-09T11:22:31.032Z,967.05
2019-02-09T11:23:30.984Z,967.09
2019-02-09T11:24:30.980Z,966.99
2019-02-09T11:25:31.855Z,967.02
2019-02-09T11:26:30.931Z,966.98
2019-02-09T11:27:30.903Z,967.02
2019-02-09T11:28:30.854Z,966.95
2019-02-09T11:29:30.722Z,966.99
2019-02-09T11:30:30.737Z,966.97
2019-02-09T11:31:30.634Z,966.89
2019-02-09T11:32:30.586Z,966.95
2019-02-09T11:33:30.594Z,967.09
2019-02-09T11:34:30.571Z,966.97
2019-02-09T11:35:30.541Z,966.99
2019-02-09T11:36:30.449Z,966.92
2019-02-09T13:51:18.555Z,967.03
2019-02-09T13:52:18.483Z,967.11
2019-02-09T13:54:11.277Z,967.06
2019-02-09T13:55:11.496Z,967.08
2019-02-09T13:56:11.158Z,967.06
2019-02-09T13:57:11.100Z,967.15
2019-02-09T13:58:11.106Z,967.18
2019-02-09T13:59:11.003Z,967.11
2019-02-09T14:00:10.954Z,967.11
2019-02-09T14:01:10.906Z,967.21
2019-02-09T14:02:10.856Z,967.30
2019-02-09T14:03:10.813Z,967.14
2019-02-09T14:04:10.762Z,967.29
2019-02-09T14:05:10.724Z,967.33
2019-02-09T14:06:10.667Z,967.29
2019-02-09T14:07:10.626Z,967.26
2019-02-09T14:08:10.607Z,967.21
2019-02-09T14:09:10.530Z,967.32
2019-02-09T14:10:10.549Z,967.37
2019-02-09T14:11:10.432Z,967.35
2019-02-09T14:12:10.388Z,967.26
2019-02-09T14:13:14.538Z,967.26
2019-02-09T14:14:10.301Z,967.32
2019-02-09T14:15:10.249Z,967.40
2019-02-09T14:16:10.853Z,967.51
2019-02-09T14:17:10.162Z,967.41
2019-02-09T14:18:10.117Z,967.42
2019-02-09T14:19:10.067Z,967.52
2019-02-09T14:20:10.023Z,967.41
2019-02-09T14:21:09.977Z,967.43
2019-02-09T14:22:09.940Z,967.42
2019-02-09T14:23:09.893Z,967.42
2019-02-09T14:24:10.538Z,967.44
2019-02-09T14:25:09.796Z,967.37
2019-02-09T14:26:09.753Z,967.47
2019-02-09T14:27:09.710Z,967.47
2019-02-09T14:28:09.661Z,967.45
2019-02-09T14:29:09.621Z,967.46
2019-02-09T14:30:09.573Z,967.46
2019-02-09T14:31:09.532Z,967.55
2019-02-09T14:32:09.483Z,967.83
2019-02-09T14:33:09.441Z,967.75
2019-02-09T14:34:09.395Z,967.76
2019-02-09T14:35:09.349Z,967.76
2019-02-09T14:36:09.307Z,967.75
2019-02-09T14:37:09.261Z,967.74
2019-02-09T14:38:09.230Z,967.69
2019-02-09T14:39:09.171Z,967.88
2019-02-09T14:40:09.127Z,967.76
2019-02-09T14:41:09.084Z,967.78
2019-02-09T14:42:09.037Z,967.81
2019-02-09T14:43:09.016Z,967.78
2019-02-09T14:44:08.952Z,967.86
2019-02-09T14:45:08.906Z,967.99
2019-02-09T14:46:08.879Z,967.97
2019-02-09T14:47:08.818Z,968.03
2019-02-09T14:48:08.784Z,968.07
2019-02-09T14:49:08.730Z,968.07
2019-02-09T14:50:11.340Z,968.04
2019-02-09T14:51:08.645Z,967.96
2019-02-09T14:52:08.597Z,967.94
2019-02-09T14:53:08.552Z,967.93
2019-02-09T14:54:08.509Z,967.93
2019-02-09T14:55:08.464Z,968.01
2019-02-09T14:56:08.428Z,967.97
2019-02-09T14:57:08.376Z,968.00
2019-02-09T14:58:08.331Z,968.00
2019-02-09T14:59:08.291Z,968.00
2019-02-09T15:00:08.243Z,967.95
2019-02-09T15:01:08.199Z,968.02
2019-02-09T15:02:08.164Z,967.96
2019-02-09T15:03:08.114Z,968.00
2019-02-09T15:04:08.071Z,968.07
2019-02-09T15:05:08.023Z,968.11
2019-02-09T15:06:07.985Z,968.00
2019-02-09T15:07:07.934Z,968.01
2019-02-09T15:08:07.894Z,968.05
2019-02-09T15:09:07.847Z,968.04
2019-02-09T15:10:07.832Z,968.04
2019-02-09T15:11:07.759Z,968.01
2019-02-09T15:12:07.715Z,968.06
2019-02-09T15:13:07.671Z,968.05
2019-02-09T15:14:07.626Z,968.06
2019-02-09T15:15:07.583Z,968.04
2019-02-09T15:16:07.549Z,967.98
2019-02-09T15:17:07.511Z,968.04
2019-02-09T15:18:07.446Z,968.05
2019-02-09T15:19:07.408Z,968.02
2019-02-09T15:20:08.226Z,967.93
2019-02-09T15:21:07.320Z,968.00
2019-02-09T15:22:07.279Z,968.01
2019-02-09T15:23:07.230Z,967.97
2019-02-09T15:24:07.187Z,967.97
2019-02-09T15:25:07.141Z,968.04
2019-02-09T15:26:07.112Z,967.99
2019-02-09T15:27:07.055Z,968.01
2019-02-09T15:28:07.019Z,967.98
2019-02-09T15:29:06.966Z,968.00
2019-02-09T15:30:06.922Z,967.98
2019-02-09T15:31:06.897Z,967.99
2019-02-09T15:32:06.852Z,967.93
2019-02-09T15:33:06.793Z,967.91
2019-02-09T15:34:10.336Z,967.91
2019-02-09T15:35:06.706Z,967.93
2019-02-09T15:36:06.670Z,967.93
2019-02-09T15:37:06.615Z,967.88
2019-02-09T15:38:06.577Z,967.90
2019-02-09T15:39:06.526Z,967.87
2019-02-09T15:40:06.503Z,967.90
2019-02-09T15:41:06.443Z,967.88
2019-02-09T15:42:06.402Z,967.87
2019-02-09T15:43:06.355Z,967.93
2019-02-09T15:44:06.317Z,967.89
2019-02-09T15:45:06.269Z,967.95
2019-02-09T15:46:06.224Z,967.95
2019-02-09T15:47:06.177Z,967.95
2019-02-09T15:48:06.152Z,967.94
2019-02-09T15:49:06.087Z,967.94
2019-02-09T15:50:06.043Z,967.93
2019-02-09T15:51:06.008Z,967.99
2019-02-09T15:52:06.026Z,967.96
2019-02-09T15:53:05.924Z,967.96
2019-02-09T15:54:05.871Z,968.03
2019-02-09T15:55:05.825Z,968.02
2019-02-09T15:56:05.791Z,968.09
2019-02-09T15:57:05.736Z,968.04
2019-02-09T15:58:05.703Z,968.03
2019-02-09T15:59:05.649Z,968.08
2019-02-09T16:00:05.604Z,968.02
2019-02-09T16:01:05.571Z,968.09
2019-02-09T16:02:05.519Z,968.08
2019-02-09T16:03:05.473Z,968.08
2019-02-09T16:04:05.427Z,968.05
2019-02-09T16:05:05.385Z,968.11
2019-02-09T16:06:05.342Z,968.10
2019-02-09T16:07:05.298Z,968.08
2019-02-09T16:08:05.256Z,968.14
2019-02-09T16:09:05.211Z,968.11
2019-02-09T16:10:05.164Z,968.18
2019-02-09T16:11:05.121Z,968.18
2019-02-09T16:12:05.075Z,968.22
2019-02-09T16:13:05.033Z,968.18
2019-02-09T16:14:04.994Z,968.24
2019-02-09T16:15:04.944Z,968.19
2019-02-09T16:16:04.901Z,968.28
2019-02-09T16:17:04.856Z,968.25
2019-02-09T16:18:04.830Z,968.33
2019-02-09T16:19:04.771Z,968.40
2019-02-09T16:20:04.722Z,968.40
2019-02-09T16:21:04.681Z,968.27
2019-02-09T16:22:04.644Z,968.30
2019-02-09T16:23:04.595Z,968.22
2019-02-09T16:24:04.555Z,968.29
2019-02-09T16:25:04.504Z,968.29
2019-02-09T16:26:04.462Z,968.21
2019-02-09T16:27:04.419Z,968.20
2019-02-09T16:28:04.393Z,968.15
2019-02-09T16:29:04.332Z,968.22
2019-02-09T16:30:04.287Z,968.18
2019-02-09T16:31:04.242Z,968.09
2019-02-09T16:32:04.199Z,968.23
2019-02-09T16:33:04.160Z,968.28
2019-02-09T16:34:04.123Z,968.27
2019-02-09T16:35:04.071Z,968.24
2019-02-09T16:36:04.022Z,968.27
2019-02-09T16:37:03.984Z,968.31
2019-02-09T16:38:03.933Z,968.20
2019-02-09T16:39:03.891Z,968.26
2019-02-09T16:40:03.848Z,968.33
2019-02-09T16:41:03.801Z,968.31
2019-02-09T16:42:03.760Z,968.31
2019-02-09T16:43:03.720Z,968.39
2019-02-09T16:44:03.673Z,968.39
2019-02-09T16:45:03.628Z,968.39
2019-02-09T16:46:03.584Z,968.33
2019-02-09T16:47:03.549Z,968.36
2019-02-09T16:48:03.499Z,968.35
2019-02-09T16:49:03.491Z,968.36
2019-02-09T16:50:03.405Z,968.35
2019-02-09T16:51:03.364Z,968.35
2019-02-09T16:52:03.327Z,968.37
2019-02-09T16:53:03.275Z,968.41
2019-02-09T16:54:03.232Z,968.45
2019-02-09T16:55:03.189Z,968.47
2019-02-09T16:56:03.144Z,968.49
2019-02-09T16:57:03.100Z,968.45
2019-02-09T16:58:03.058Z,968.45
2019-02-09T16:59:03.013Z,968.47
2019-02-09T17:00:02.974Z,968.51
2019-02-09T17:01:02.923Z,968.50
2019-02-09T17:02:02.884Z,968.53
2019-02-09T17:03:02.837Z,968.56
2019-02-09T17:04:02.793Z,968.54
2019-02-09T17:05:02.749Z,968.51
2019-02-09T17:06:02.706Z,968.57
2019-02-09T17:07:02.673Z,968.55
2019-02-09T17:08:02.618Z,968.59
2019-02-09T17:09:02.579Z,968.56
2019-02-09T17:10:02.531Z,968.62
2019-02-09T17:11:02.486Z,968.59
2019-02-09T17:12:02.441Z,968.67
2019-02-09T17:13:02.396Z,968.64
2019-02-09T17:14:02.352Z,968.62
2019-02-09T17:15:02.308Z,968.63
2019-02-09T17:16:02.366Z,968.58
2019-02-09T17:17:02.221Z,968.59
2019-02-09T17:18:02.187Z,968.53
2019-02-09T17:19:02.134Z,968.58
2019-02-09T17:20:02.148Z,968.55
2019-02-09T17:21:02.058Z,968.59
2019-02-09T17:22:02.006Z,968.61
2019-02-09T17:23:01.956Z,968.56